Time;durP1;ratioP1;P1;durP2;ratioP2;P2;SDS_P1;SDS_P2;PMS_P1;PMS_P2;Temp;Humidity;BMP_temperature;BMP_pressure;BME280_temperature;BME280_humidity;BME280_pressure;Samples;Min_cycle;Max_cycle;Signal;HPM_P1;HPM_P2
2024/01/07 00:00:01;;;;;;;3.30;3.10;;;;;;;5.65;100.00;98147.75;5090064;28;20732;-67
2024/01/07 00:02:27;;;;;;;5.03;2.40;;;;;;;5.63;100.00;98159.66;5098597;28;20233;-68
2024/01/07 00:04:56;;;;;;;2.27;2.07;;;;;;;5.40;100.00;98174.75;5098552;28;20207;-67
2024/01/07 00:07:22;;;;;;;7.43;2.83;;;;;;;5.42;100.00;98148.44;5098362;28;20194;-68
2024/01/07 00:09:49;;;;;;;1.43;1.43;;;;;;;5.37;100.00;98141.81;5100274;28;20617;-67
2024/01/07 00:12:16;;;;;;;2.93;2.10;;;;;;;5.29;100.00;98150.50;5099822;28;20206;-67
2024/01/07 00:14:43;;;;;;;1.20;1.20;;;;;;;5.28;100.00;98118.34;5107665;28;20195;-67
2024/01/07 00:17:11;;;;;;;0.97;0.97;;;;;;;5.36;100.00;98102.06;5113944;28;20244;-67
2024/01/07 00:19:39;;;;;;;3.77;1.97;;;;;;;5.36;100.00;98084.28;5099367;28;20245;-67
2024/01/07 00:22:07;;;;;;;3.77;1.80;;;;;;;5.41;100.00;98082.41;5107573;27;20199;-67
2024/01/07 00:24:34;;;;;;;3.50;1.40;;;;;;;5.38;100.00;98072.34;5103603;28;20211;-67
2024/01/07 00:27:01;;;;;;;3.10;3.07;;;;;;;5.41;100.00;98062.06;5102741;28;20191;-68
2024/01/07 00:29:27;;;;;;;3.17;1.37;;;;;;;5.47;100.00;98094.91;5107933;28;20666;-67
2024/01/07 00:31:54;;;;;;;1.30;1.30;;;;;;;5.43;100.00;98093.38;5095212;28;20210;-67
2024/01/07 00:34:21;;;;;;;2.43;2.33;;;;;;;5.49;100.00;98091.47;5106763;28;20199;-67
2024/01/07 00:36:47;;;;;;;3.87;3.53;;;;;;;5.54;100.00;98104.88;5093900;28;20667;-68
2024/01/07 00:39:15;;;;;;;4.00;2.77;;;;;;;5.58;100.00;98070.03;5096524;28;20298;-68
2024/01/07 00:41:42;;;;;;;2.97;2.90;;;;;;;5.56;100.00;98071.75;5102963;28;20656;-67
2024/01/07 00:44:09;;;;;;;1.67;1.67;;;;;;;5.68;100.00;98086.66;5112296;28;20690;-67
2024/01/07 00:46:35;;;;;;;1.30;1.30;;;;;;;5.65;100.00;98053.69;5092739;28;20667;-68
2024/01/07 00:49:02;;;;;;;1.30;1.20;;;;;;;5.75;100.00;98055.06;5095201;28;20265;-68
2024/01/07 00:51:29;;;;;;;3.00;2.70;;;;;;;5.81;100.00;98037.06;5110985;27;20689;-68
2024/01/07 00:53:56;;;;;;;1.87;1.87;;;;;;;5.78;100.00;98019.38;5092887;28;20195;-68
2024/01/07 00:56:26;;;;;;;2.80;2.70;;;;;;;5.96;100.00;98021.31;5105697;28;20195;-67
2024/01/07 00:58:53;;;;;;;1.17;1.17;;;;;;;5.98;100.00;98018.75;5093708;28;20203;-68
2024/01/07 01:01:20;;;;;;;1.57;1.57;;;;;;;6.03;100.00;98016.88;5092608;28;20196;-68
2024/01/07 01:03:46;;;;;;;2.20;2.10;;;;;;;6.10;100.00;98018.31;5101147;28;20210;-68
2024/01/07 01:06:13;;;;;;;4.53;2.90;;;;;;;6.13;100.00;98001.25;5095644;28;20217;-68
2024/01/07 01:08:41;;;;;;;1.93;1.90;;;;;;;6.23;100.00;97994.94;5104481;28;20626;-67
2024/01/07 01:11:10;;;;;;;3.27;3.07;;;;;;;6.18;100.00;97979.00;5101101;28;20664;-68
2024/01/07 01:13:38;;;;;;;1.50;1.50;;;;;;;6.07;100.00;97958.22;5105285;28;20264;-68
2024/01/07 01:16:05;;;;;;;3.43;1.93;;;;;;;6.03;100.00;97940.56;5104216;28;20199;-68
2024/01/07 01:18:32;;;;;;;4.90;3.70;;;;;;;5.93;100.00;97914.63;5092342;28;20191;-68
2024/01/07 01:20:58;;;;;;;1.80;1.77;;;;;;;6.01;100.00;97907.53;5092500;28;20203;-67
2024/01/07 01:23:25;;;;;;;1.70;1.60;;;;;;;6.08;100.00;97918.31;5111794;28;20207;-68
2024/01/07 01:25:52;;;;;;;2.07;2.07;;;;;;;6.16;100.00;97924.81;5112488;28;20755;-67
2024/01/07 01:28:18;;;;;;;5.13;2.47;;;;;;;6.24;100.00;97915.16;5110724;28;20662;-68
2024/01/07 01:30:46;;;;;;;2.73;2.57;;;;;;;6.14;100.00;97882.50;5103712;28;20628;-67
2024/01/07 01:33:13;;;;;;;5.20;2.80;;;;;;;6.26;100.00;97902.41;5099801;28;20204;-67
2024/01/07 01:35:40;;;;;;;3.43;3.23;;;;;;;6.30;100.00;97903.97;5091651;28;20740;-68
2024/01/07 01:38:06;;;;;;;1.83;1.70;;;;;;;6.18;100.00;97884.03;5092063;28;20191;-68
2024/01/07 01:40:34;;;;;;;2.40;1.73;;;;;;;6.15;100.00;97853.63;5100461;28;20264;-68
2024/01/07 01:43:01;;;;;;;1.87;1.77;;;;;;;6.05;100.00;97863.31;5108512;28;20205;-67
2024/01/07 01:45:27;;;;;;;2.90;2.70;;;;;;;6.01;100.00;97845.69;5103437;28;20263;-68
2024/01/07 01:47:56;;;;;;;3.10;1.50;;;;;;;5.91;100.00;97814.69;5097029;27;20199;-68
2024/01/07 01:50:23;;;;;;;3.07;2.97;;;;;;;5.85;100.00;97803.88;5091282;28;20252;-68
2024/01/07 01:52:50;;;;;;;0.97;0.97;;;;;;;5.84;100.00;97795.41;5091839;28;20195;-68
2024/01/07 01:55:17;;;;;;;3.20;1.70;;;;;;;5.77;100.00;97781.25;5092960;28;20327;-68
2024/01/07 01:57:47;;;;;;;1.90;1.80;;;;;;;5.83;100.00;97775.94;5106020;28;20249;-68
2024/01/07 02:00:14;;;;;;;2.17;2.07;;;;;;;5.90;100.00;97772.31;5093165;28;20630;-68
2024/01/07 02:02:41;;;;;;;2.47;2.23;;;;;;;5.96;100.00;97777.19;5095551;28;20207;-68
2024/01/07 02:05:09;;;;;;;2.23;2.13;;;;;;;5.90;100.00;97786.75;5111150;28;20631;-69
2024/01/07 02:07:36;;;;;;;3.57;1.73;;;;;;;5.96;100.00;97787.34;5093743;28;20967;-68
2024/01/07 02:10:03;;;;;;;1.60;1.60;;;;;;;6.08;100.00;97786.88;5098159;28;20199;-68
2024/01/07 02:12:29;;;;;;;1.47;1.37;;;;;;;6.18;100.00;97770.38;5099723;28;20200;-68
2024/01/07 02:14:56;;;;;;;1.53;1.47;;;;;;;6.28;100.00;97763.22;5096398;28;20821;-63
2024/01/07 02:17:23;;;;;;;2.33;2.23;;;;;;;6.40;100.00;97767.81;5108089;28;20252;-63
2024/01/07 02:19:50;;;;;;;1.83;1.73;;;;;;;6.49;100.00;97759.00;5095121;28;20571;-64
2024/01/07 02:22:18;;;;;;;2.70;2.60;;;;;;;6.50;100.00;97732.66;5096148;28;20192;-63
2024/01/07 02:24:46;;;;;;;1.73;1.63;;;;;;;6.65;100.00;97743.06;5094228;28;20747;-63
2024/01/07 02:27:13;;;;;;;1.60;1.57;;;;;;;6.77;100.00;97741.72;5111519;28;20195;-63
2024/01/07 02:29:40;;;;;;;2.57;2.50;;;;;;;7.00;100.00;97736.50;5109402;28;20248;-63
2024/01/07 02:32:07;;;;;;;1.67;1.67;;;;;;;7.08;100.00;97731.88;5090977;28;20192;-63
2024/01/07 02:34:34;;;;;;;7.90;2.53;;;;;;;7.17;100.00;97736.59;5090787;28;20191;-64
2024/01/07 02:37:00;;;;;;;2.13;2.00;;;;;;;7.27;100.00;97725.09;5090484;28;20244;-63
2024/01/07 02:39:27;;;;;;;2.10;1.90;;;;;;;7.36;100.00;97721.34;5088335;28;20645;-63
2024/01/07 02:41:55;;;;;;;2.53;2.30;;;;;;;7.53;100.00;97697.66;5090618;28;20260;-65
2024/01/07 02:44:22;;;;;;;1.93;1.83;;;;;;;7.70;100.00;97669.66;5092609;28;20211;-63
2024/01/07 02:46:48;;;;;;;2.27;2.17;;;;;;;7.75;100.00;97667.72;5090376;28;20196;-63
2024/01/07 02:49:15;;;;;;;2.60;2.50;;;;;;;7.82;100.00;97663.97;5103343;28;20320;-63
2024/01/07 02:51:42;;;;;;;3.73;2.27;;;;;;;7.87;100.00;97673.09;5090570;28;20667;-64
2024/01/07 02:54:09;;;;;;;4.93;3.33;;;;;;;7.91;100.00;97678.88;5091022;28;20664;-63
2024/01/07 02:56:36;;;;;;;4.23;2.27;;;;;;;7.98;100.00;97680.22;5096214;28;20283;-64
2024/01/07 02:59:04;;;;;;;4.47;2.30;;;;;;;8.01;100.00;97699.69;5093248;28;20199;-63
2024/01/07 03:01:30;;;;;;;3.13;2.97;;;;;;;7.91;100.00;97702.66;5090489;28;20657;-64
2024/01/07 03:03:57;;;;;;;4.23;3.77;;;;;;;7.77;100.00;97696.53;5090312;28;20244;-63
2024/01/07 03:06:27;;;;;;;6.47;3.83;;;;;;;7.53;100.00;97715.50;5090828;28;20215;-63
2024/01/07 03:08:54;;;;;;;2.67;2.47;;;;;;;7.57;100.00;97706.81;5090632;28;20562;-63
2024/01/07 03:11:21;;;;;;;2.73;2.50;;;;;;;8.05;100.00;97724.13;5090284;28;20203;-63
2024/01/07 03:13:47;;;;;;;1.10;1.07;;;;;;;8.42;100.00;97753.00;5098746;28;20192;-63
2024/01/07 03:16:21;;;;;;;2.40;2.30;;;;;;;8.21;100.00;97759.06;5099120;28;20195;-64
2024/01/07 03:18:48;;;;;;;3.10;2.80;;;;;;;7.94;100.00;97775.66;5098404;28;20207;-64
2024/01/07 03:21:19;;;;;;;2.87;2.70;;;;;;;7.79;100.00;97736.38;5103081;28;20199;-64
2024/01/07 03:23:46;;;;;;;3.43;3.33;;;;;;;7.75;100.00;97744.25;5099534;28;20230;-64
2024/01/07 03:26:12;;;;;;;5.00;2.40;;;;;;;7.64;100.00;97742.16;5108104;28;20210;-64
2024/01/07 03:28:39;;;;;;;2.87;2.67;;;;;;;7.64;100.00;97737.06;5099234;28;20637;-63
2024/01/07 03:31:07;;;;;;;4.67;2.97;;;;;;;7.64;100.00;97728.59;5092093;28;20199;-63
2024/01/07 03:33:35;;;;;;;3.47;2.17;;;;;;;7.65;100.00;97722.59;5092040;28;20260;-64
2024/01/07 03:36:01;;;;;;;2.67;2.57;;;;;;;7.68;100.00;97742.84;5107133;28;20251;-63
2024/01/07 03:38:28;;;;;;;2.27;2.17;;;;;;;7.72;100.00;97741.84;5094394;28;20743;-63
2024/01/07 03:40:55;;;;;;;2.57;2.37;;;;;;;7.72;100.00;97721.44;5103426;28;20621;-63
2024/01/07 03:43:21;;;;;;;3.13;2.17;;;;;;;7.74;100.00;97724.72;5090176;28;20200;-64
2024/01/07 03:45:49;;;;;;;4.83;4.17;;;;;;;7.73;100.00;97731.53;5099019;28;20211;-64
2024/01/07 03:48:16;;;;;;;3.87;3.67;;;;;;;7.75;100.00;97718.75;5111390;28;20202;-63
2024/01/07 03:50:44;;;;;;;2.87;2.63;;;;;;;7.73;100.00;97702.66;5099646;28;20272;-64
2024/01/07 03:53:11;;;;;;;2.10;2.00;;;;;;;7.77;100.00;97702.47;5093693;28;20191;-63
2024/01/07 03:55:37;;;;;;;2.80;2.70;;;;;;;7.77;100.00;97684.59;5114743;28;20739;-64
2024/01/07 03:58:05;;;;;;;5.63;3.03;;;;;;;7.80;100.00;97686.19;5114392;28;20574;-64
2024/01/07 04:00:32;;;;;;;4.10;3.60;;;;;;;7.82;100.00;97697.13;5114292;27;20191;-63
2024/01/07 04:02:59;;;;;;;2.30;2.17;;;;;;;7.84;100.00;97705.56;5114198;28;20251;-64
2024/01/07 04:05:26;;;;;;;8.43;3.40;;;;;;;7.81;100.00;97713.34;5110325;28;20214;-64
2024/01/07 04:07:54;;;;;;;6.33;2.73;;;;;;;7.83;100.00;97696.25;5097091;28;20198;-64
2024/01/07 04:10:20;;;;;;;4.17;2.53;;;;;;;7.86;100.00;97691.00;5100579;28;20210;-63
2024/01/07 04:12:48;;;;;;;5.23;3.53;;;;;;;7.89;100.00;97660.25;5114323;28;20198;-64
2024/01/07 04:15:14;;;;;;;3.53;3.20;;;;;;;7.79;100.00;97620.75;5113804;27;20191;-63
2024/01/07 04:17:41;;;;;;;3.53;3.30;;;;;;;7.95;100.00;97614.03;5111083;28;20202;-64
2024/01/07 04:20:09;;;;;;;3.00;2.80;;;;;;;8.01;100.00;97621.41;5093517;28;20629;-64
2024/01/07 04:22:36;;;;;;;2.77;1.93;;;;;;;8.01;100.00;97618.88;5093143;28;20252;-64
2024/01/07 04:25:07;;;;;;;2.20;1.87;;;;;;;8.07;100.00;97623.66;5105469;28;20210;-64
2024/01/07 04:27:34;;;;;;;3.60;3.30;;;;;;;8.16;100.00;97648.72;5112356;28;20725;-63
2024/01/07 04:30:01;;;;;;;3.40;3.30;;;;;;;8.09;100.00;97632.06;5102402;28;20195;-64
2024/01/07 04:32:29;;;;;;;3.23;2.93;;;;;;;8.20;100.00;97640.03;5109813;28;20198;-63
2024/01/07 04:34:57;;;;;;;3.17;2.93;;;;;;;8.26;100.00;97665.25;5099152;28;20195;-64
2024/01/07 04:37:23;;;;;;;4.27;3.87;;;;;;;8.28;100.00;97643.06;5109115;28;20199;-65
2024/01/07 04:39:50;;;;;;;4.40;4.10;;;;;;;8.31;100.00;97639.53;5111504;28;20643;-64
2024/01/07 04:42:19;;;;;;;3.97;3.77;;;;;;;8.36;100.00;97656.28;5101694;28;20195;-64
2024/01/07 04:44:46;;;;;;;7.07;5.00;;;;;;;8.35;100.00;97653.78;5096638;28;20256;-64
2024/01/07 04:47:27;;;;;;;5.03;4.57;;;;;;;8.36;100.00;97658.84;5108943;27;20195;-64
2024/01/07 04:49:54;;;;;;;3.77;3.37;;;;;;;8.38;100.00;97654.47;5093793;28;20198;-64
2024/01/07 04:52:22;;;;;;;5.80;3.00;;;;;;;8.35;100.00;97652.06;5107113;28;20203;-63
2024/01/07 04:54:49;;;;;;;4.37;4.07;;;;;;;8.33;100.00;97624.97;5102900;28;20667;-65
2024/01/07 04:57:16;;;;;;;5.53;2.30;;;;;;;8.25;100.00;97625.31;5093096;28;20192;-64
2024/01/07 04:59:44;;;;;;;6.93;3.47;;;;;;;8.36;100.00;97630.75;5092002;28;20678;-64
2024/01/07 05:02:11;;;;;;;3.33;3.07;;;;;;;8.42;100.00;97610.03;5101111;28;20192;-64
2024/01/07 05:04:38;;;;;;;2.90;2.53;;;;;;;8.39;100.00;97612.72;5101387;28;20198;-65
2024/01/07 05:07:05;;;;;;;3.53;3.27;;;;;;;8.50;100.00;97631.81;5102131;28;20244;-63
2024/01/07 05:09:32;;;;;;;3.30;2.93;;;;;;;8.55;100.00;97627.28;5092898;28;20195;-64
2024/01/07 05:11:59;;;;;;;2.53;2.33;;;;;;;8.63;100.00;97613.22;5109455;28;20251;-64
2024/01/07 05:14:26;;;;;;;2.73;2.57;;;;;;;8.63;100.00;97618.31;5095084;28;20264;-64
2024/01/07 05:16:56;;;;;;;3.03;2.83;;;;;;;8.63;100.00;97612.38;5101080;28;20625;-64
2024/01/07 05:19:23;;;;;;;5.13;3.10;;;;;;;8.71;100.00;97630.72;5095066;28;20195;-64
2024/01/07 05:21:49;;;;;;;5.73;5.43;;;;;;;8.75;100.00;97632.22;5110691;28;20252;-64
2024/01/07 05:24:16;;;;;;;6.10;3.77;;;;;;;8.77;100.00;97632.94;5098227;28;20195;-64
2024/01/07 05:26:44;;;;;;;2.90;2.70;;;;;;;8.71;100.00;97623.03;5103235;28;20215;-64
2024/01/07 05:29:11;;;;;;;5.07;3.83;;;;;;;8.73;100.00;97623.78;5096679;28;20199;-64
2024/01/07 05:31:38;;;;;;;4.37;3.90;;;;;;;8.74;100.00;97625.44;5092381;28;20242;-64
2024/01/07 05:34:07;;;;;;;4.27;3.63;;;;;;;8.65;100.00;97610.59;5091608;28;20659;-64
2024/01/07 05:36:33;;;;;;;5.10;3.93;;;;;;;8.76;100.00;97623.63;5095888;28;20218;-64
2024/01/07 05:39:00;;;;;;;2.80;2.17;;;;;;;8.76;100.00;97629.56;5101297;28;20223;-64
2024/01/07 05:41:27;;;;;;;2.53;2.43;;;;;;;8.79;100.00;97639.63;5100603;28;20247;-64
2024/01/07 05:43:54;;;;;;;3.63;3.43;;;;;;;8.78;100.00;97637.16;5091990;28;20264;-64
2024/01/07 05:46:20;;;;;;;10.57;4.00;;;;;;;8.78;100.00;97653.31;5102183;28;20695;-64
2024/01/07 05:48:49;;;;;;;3.20;2.87;;;;;;;8.77;100.00;97661.03;5097466;28;20195;-64
2024/01/07 05:51:17;;;;;;;3.40;2.90;;;;;;;8.76;100.00;97664.50;5100270;28;20282;-64
2024/01/07 05:53:45;;;;;;;3.27;3.10;;;;;;;8.59;100.00;97631.34;5091814;28;20272;-64
2024/01/07 05:56:13;;;;;;;7.93;3.03;;;;;;;8.52;100.00;97650.41;5091471;28;20265;-64
2024/01/07 05:58:39;;;;;;;2.37;2.17;;;;;;;8.58;100.00;97666.25;5108379;28;20286;-63
2024/01/07 06:01:08;;;;;;;3.63;2.90;;;;;;;8.47;100.00;97639.59;5105588;28;20195;-64
2024/01/07 06:03:34;;;;;;;2.87;2.67;;;;;;;8.41;100.00;97644.09;5091586;28;20188;-64
2024/01/07 06:06:01;;;;;;;4.37;3.33;;;;;;;8.38;100.00;97628.94;5091520;28;20233;-64
2024/01/07 06:08:29;;;;;;;5.33;3.37;;;;;;;8.30;100.00;97605.50;5091427;28;20245;-64
2024/01/07 06:10:56;;;;;;;7.90;3.73;;;;;;;8.50;100.00;97644.56;5089570;28;20200;-64
2024/01/07 06:13:23;;;;;;;2.73;2.53;;;;;;;8.52;100.00;97647.88;5108102;28;21253;-64
2024/01/07 06:15:49;;;;;;;7.63;4.63;;;;;;;8.52;100.00;97635.09;5089550;28;20192;-64
2024/01/07 06:18:16;;;;;;;3.37;3.17;;;;;;;8.51;100.00;97635.97;5090894;28;20248;-64
2024/01/07 06:20:43;;;;;;;16.13;4.33;;;;;;;8.44;100.00;97633.75;5103399;28;20256;-64
2024/01/07 06:23:09;;;;;;;6.43;4.43;;;;;;;8.41;100.00;97627.97;5091262;28;20252;-64
2024/01/07 06:25:39;;;;;;;6.27;5.77;;;;;;;8.28;100.00;97614.97;5090895;28;20211;-64
2024/01/07 06:28:06;;;;;;;10.83;6.53;;;;;;;8.27;100.00;97620.94;5090353;28;20195;-64
2024/01/07 06:30:32;;;;;;;2.40;2.20;;;;;;;8.37;100.00;97616.25;5099470;28;20264;-65
2024/01/07 06:32:59;;;;;;;3.63;3.50;;;;;;;8.47;100.00;97608.94;5091226;28;20629;-64
2024/01/07 06:35:26;;;;;;;3.57;3.40;;;;;;;8.54;100.00;97602.63;5092265;28;20253;-64
2024/01/07 06:37:52;;;;;;;3.57;2.63;;;;;;;8.67;100.00;97621.53;5089135;28;20203;-64
2024/01/07 06:40:19;;;;;;;4.07;3.27;;;;;;;8.77;100.00;97615.91;5089949;28;20284;-64
2024/01/07 06:42:48;;;;;;;6.57;2.70;;;;;;;8.85;100.00;97613.75;5092047;28;20640;-64
2024/01/07 06:45:15;;;;;;;9.27;5.03;;;;;;;8.91;100.00;97607.53;5102710;28;20191;-64
2024/01/07 06:47:42;;;;;;;5.60;5.30;;;;;;;8.92;100.00;97598.94;5091914;28;20211;-64
2024/01/07 06:50:10;;;;;;;6.17;4.47;;;;;;;8.93;100.00;97606.53;5090802;28;20256;-65
2024/01/07 06:52:37;;;;;;;8.50;4.90;;;;;;;8.97;100.00;97612.31;5091179;28;20207;-64
2024/01/07 06:55:03;;;;;;;7.07;4.53;;;;;;;9.03;100.00;97612.00;5092450;28;20232;-64
2024/01/07 06:57:30;;;;;;;5.40;4.80;;;;;;;9.02;100.00;97620.56;5088921;28;20199;-64
2024/01/07 06:59:58;;;;;;;11.73;7.37;;;;;;;9.08;100.00;97625.34;5087984;28;20203;-64
2024/01/07 07:02:25;;;;;;;8.50;6.13;;;;;;;9.09;100.00;97621.06;5088223;28;20203;-64
2024/01/07 07:04:51;;;;;;;10.70;8.33;;;;;;;9.12;100.00;97629.41;5089143;28;20203;-64
2024/01/07 07:07:18;;;;;;;22.83;9.47;;;;;;;9.14;100.00;97639.56;5086078;28;20219;-64
2024/01/07 07:09:45;;;;;;;16.07;6.53;;;;;;;9.18;100.00;97646.97;5087629;28;20252;-64
2024/01/07 07:12:13;;;;;;;13.07;8.73;;;;;;;9.23;100.00;97654.41;5090318;28;20687;-64
2024/01/07 07:14:40;;;;;;;8.60;5.33;;;;;;;9.19;100.00;97651.19;5093226;28;20276;-64
2024/01/07 07:17:08;;;;;;;10.93;6.00;;;;;;;9.17;100.00;97647.88;5087608;28;20645;-64
2024/01/07 07:19:34;;;;;;;4.70;4.37;;;;;;;9.17;100.00;97650.44;5086499;28;20211;-64
2024/01/07 07:22:01;;;;;;;6.27;3.97;;;;;;;9.18;100.00;97651.25;5089455;28;20254;-64
2024/01/07 07:24:28;;;;;;;5.83;4.60;;;;;;;9.16;100.00;97651.34;5092076;28;20624;-63
2024/01/07 07:26:55;;;;;;;4.50;3.40;;;;;;;9.14;100.00;97642.09;5093120;28;20227;-64
2024/01/07 07:29:21;;;;;;;3.43;2.93;;;;;;;9.08;100.00;97650.91;5092881;28;20198;-64
2024/01/07 07:31:48;;;;;;;2.97;2.87;;;;;;;9.10;100.00;97650.84;5093263;28;20199;-64
2024/01/07 07:34:16;;;;;;;2.40;2.07;;;;;;;9.10;100.00;97656.78;5092742;28;20303;-64
2024/01/07 07:36:44;;;;;;;3.50;3.13;;;;;;;9.11;100.00;97655.06;5091915;28;20203;-64
2024/01/07 07:39:11;;;;;;;2.93;2.63;;;;;;;9.11;100.00;97658.41;5093038;28;20219;-64
2024/01/07 07:41:38;;;;;;;8.40;2.57;;;;;;;9.08;100.00;97661.13;5092272;28;20199;-64
2024/01/07 07:44:05;;;;;;;3.77;3.47;;;;;;;9.13;100.00;97666.84;5092234;28;20256;-64
2024/01/07 07:46:32;;;;;;;5.70;2.10;;;;;;;9.09;100.00;97657.66;5090280;28;20690;-64
2024/01/07 07:48:58;;;;;;;2.87;2.77;;;;;;;9.06;100.00;97659.56;5090886;28;20248;-64
2024/01/07 07:51:27;;;;;;;10.33;2.97;;;;;;;9.08;100.00;97666.22;5091230;28;20252;-64
2024/01/07 07:53:54;;;;;;;3.00;2.80;;;;;;;9.02;100.00;97664.00;5092959;28;20199;-65
2024/01/07 07:56:20;;;;;;;6.10;3.70;;;;;;;9.00;100.00;97652.22;5090501;28;20203;-65
2024/01/07 07:58:48;;;;;;;3.30;3.00;;;;;;;9.08;100.00;97658.56;5091833;28;20261;-64
2024/01/07 08:01:15;;;;;;;3.13;2.23;;;;;;;9.11;100.00;97640.50;5095935;28;20258;-64
2024/01/07 08:03:41;;;;;;;2.20;2.00;;;;;;;9.29;100.00;97644.69;5102447;28;20212;-65
2024/01/07 08:06:08;;;;;;;3.60;3.27;;;;;;;9.35;100.00;97651.19;5090387;28;20273;-64
2024/01/07 08:08:36;;;;;;;5.47;4.67;;;;;;;9.35;100.00;97651.19;5093103;28;20199;-64
2024/01/07 08:11:06;;;;;;;3.80;3.50;;;;;;;9.38;100.00;97646.75;5097008;28;20202;-64
2024/01/07 08:13:32;;;;;;;3.63;3.47;;;;;;;9.50;100.00;97648.63;5091064;28;20671;-64
2024/01/07 08:15:59;;;;;;;9.43;3.80;;;;;;;9.57;100.00;97645.75;5091099;28;20643;-64
2024/01/07 08:18:26;;;;;;;4.43;2.10;;;;;;;9.62;100.00;97634.38;5092714;28;20255;-64
2024/01/07 08:20:52;;;;;;;7.37;2.10;;;;;;;9.72;100.00;97644.94;5100849;28;20613;-64
2024/01/07 08:23:19;;;;;;;1.87;1.73;;;;;;;9.80;100.00;97651.28;5091420;28;20656;-64
2024/01/07 08:25:47;;;;;;;10.20;2.03;;;;;;;9.84;100.00;97651.94;5093483;28;20209;-64
2024/01/07 08:28:14;;;;;;;2.73;2.47;;;;;;;9.79;100.00;97633.47;5091543;28;20199;-64
2024/01/07 08:30:41;;;;;;;4.33;4.03;;;;;;;9.94;100.00;97653.06;5090043;28;20207;-64
2024/01/07 08:33:08;;;;;;;2.73;2.63;;;;;;;10.00;100.00;97652.72;5092073;28;20196;-64
2024/01/07 08:35:34;;;;;;;2.77;2.57;;;;;;;10.08;100.00;97653.13;5092356;28;20256;-64
2024/01/07 08:38:01;;;;;;;3.37;3.10;;;;;;;10.22;100.00;97653.22;5089946;28;20211;-64
2024/01/07 08:40:29;;;;;;;6.27;4.03;;;;;;;10.33;100.00;97650.88;5090230;28;20227;-64
2024/01/07 08:42:57;;;;;;;4.63;4.23;;;;;;;10.47;100.00;97655.19;5088916;28;20234;-64
2024/01/07 08:45:24;;;;;;;3.50;3.20;;;;;;;10.63;100.00;97653.41;5091796;28;20223;-64
2024/01/07 08:47:50;;;;;;;3.97;3.67;;;;;;;10.80;100.00;97650.69;5090246;28;20567;-64
2024/01/07 08:50:17;;;;;;;2.93;2.67;;;;;;;11.01;100.00;97656.28;5095947;28;20658;-64
2024/01/07 08:52:46;;;;;;;7.50;3.30;;;;;;;11.15;100.00;97651.13;5090702;28;20272;-64
2024/01/07 08:55:13;;;;;;;5.70;2.10;;;;;;;11.34;100.00;97645.75;5093857;28;20201;-64
2024/01/07 08:57:39;;;;;;;1.83;1.73;;;;;;;11.47;100.00;97639.75;5097256;28;20242;-64
2024/01/07 09:00:08;;;;;;;5.40;3.03;;;;;;;11.66;100.00;97647.16;5091558;28;20256;-68
2024/01/07 09:02:35;;;;;;;2.87;2.77;;;;;;;11.78;100.00;97645.56;5094346;28;20720;-68
2024/01/07 09:05:02;;;;;;;2.17;2.07;;;;;;;11.93;100.00;97654.88;5093870;28;20203;-69
2024/01/07 09:07:29;;;;;;;2.40;2.27;;;;;;;12.14;100.00;97663.78;5087642;28;20217;-69
2024/01/07 09:09:59;;;;;;;5.10;1.93;;;;;;;12.43;100.00;97664.47;5094477;28;20194;-69
2024/01/07 09:12:26;;;;;;;2.00;1.83;;;;;;;12.56;100.00;97658.44;5091410;28;20203;-68
2024/01/07 09:14:52;;;;;;;1.33;1.23;;;;;;;12.55;100.00;97658.53;5102437;28;20228;-69
2024/01/07 09:17:21;;;;;;;1.27;1.27;;;;;;;12.55;100.00;97651.66;5095242;28;20633;-69
2024/01/07 09:19:48;;;;;;;1.90;1.90;;;;;;;12.59;100.00;97650.53;5091466;28;20211;-68
2024/01/07 09:22:14;;;;;;;1.67;1.57;;;;;;;12.67;100.00;97651.75;5089142;28;20204;-69
2024/01/07 09:24:41;;;;;;;9.33;2.13;;;;;;;12.68;100.00;97643.13;5090277;28;20269;-68
2024/01/07 09:27:08;;;;;;;1.73;1.63;;;;;;;12.74;100.00;97629.84;5089035;28;20223;-68
2024/01/07 09:29:35;;;;;;;1.60;1.47;;;;;;;12.76;100.00;97626.28;5092969;28;20290;-67
2024/01/07 09:32:01;;;;;;;6.03;3.13;;;;;;;12.78;100.00;97623.59;5091777;28;20916;-72
2024/01/07 09:34:29;;;;;;;2.95;2.75;;;;;;;12.84;100.00;97623.16;5097848;28;20440;-65
2024/01/07 09:36:56;;;;;;;2.93;2.63;;;;;;;12.90;100.00;97633.88;5104742;28;20574;-66
2024/01/07 09:39:23;;;;;;;1.73;1.63;;;;;;;12.96;100.00;97635.19;5100450;28;20223;-65
2024/01/07 09:41:50;;;;;;;4.93;1.63;;;;;;;12.97;100.00;97635.09;5100665;28;20199;-66
2024/01/07 09:44:17;;;;;;;2.17;2.07;;;;;;;12.90;100.00;97628.72;5097353;28;20253;-65
2024/01/07 09:46:51;;;;;;;2.40;1.83;;;;;;;12.93;100.00;97619.97;5098939;28;20234;-65
2024/01/07 09:49:18;;;;;;;1.57;1.53;;;;;;;12.94;100.00;97614.75;5108167;28;20202;-66
2024/01/07 09:51:47;;;;;;;1.93;1.83;;;;;;;12.93;100.00;97617.41;5097957;28;20208;-65
2024/01/07 09:54:16;;;;;;;1.23;1.23;;;;;;;12.96;100.00;97617.19;5097149;28;20766;-65
2024/01/07 09:56:51;;;;;;;2.10;1.83;;;;;;;13.04;100.00;97604.66;5092656;28;20218;-65
2024/01/07 09:59:19;;;;;;;3.87;2.60;;;;;;;13.05;100.00;97607.09;5096989;28;20199;-64
2024/01/07 10:01:46;;;;;;;3.77;2.67;;;;;;;13.08;100.00;97609.53;5097154;28;20756;-66
2024/01/07 10:04:13;;;;;;;2.07;1.87;;;;;;;13.20;100.00;97604.44;5097077;28;20632;-65
2024/01/07 10:06:40;;;;;;;3.87;2.33;;;;;;;13.24;100.00;97605.88;5100663;28;20224;-66
2024/01/07 10:09:08;;;;;;;2.30;2.20;;;;;;;13.38;100.00;97591.09;5086806;28;20256;-66
2024/01/07 10:11:35;;;;;;;1.07;1.07;;;;;;;13.41;100.00;97578.03;5093635;28;20234;-66
2024/01/07 10:14:02;;;;;;;1.83;1.77;;;;;;;13.57;100.00;97586.31;5097546;28;20675;-65
2024/01/07 10:16:29;;;;;;;0.70;0.70;;;;;;;13.75;100.00;97593.66;5107828;28;20203;-66
2024/01/07 10:18:57;;;;;;;0.80;0.77;;;;;;;13.73;100.00;97583.50;5099111;28;20640;-66
2024/01/07 10:21:23;;;;;;;0.63;0.63;;;;;;;13.77;100.00;97581.50;5098706;28;20206;-66
2024/01/07 10:23:50;;;;;;;1.00;1.00;;;;;;;13.76;100.00;97572.13;5099219;28;20629;-65
2024/01/07 10:26:18;;;;;;;1.80;1.80;;;;;;;13.87;100.00;97564.44;5108249;28;20211;-65
2024/01/07 10:28:45;;;;;;;1.90;1.80;;;;;;;13.86;100.00;97552.53;5100066;28;20640;-65
2024/01/07 10:31:12;;;;;;;6.07;4.30;;;;;;;13.95;100.00;97562.16;5100214;28;20191;-66
2024/01/07 10:33:40;;;;;;;5.47;2.60;;;;;;;13.93;100.00;97553.69;5091310;28;20195;-65
2024/01/07 10:36:07;;;;;;;1.50;1.40;;;;;;;13.96;100.00;97553.47;5091434;28;20747;-65
2024/01/07 10:38:34;;;;;;;3.53;3.17;;;;;;;14.03;100.00;97560.66;5096147;28;20650;-65
2024/01/07 10:41:02;;;;;;;2.77;2.57;;;;;;;14.07;100.00;97550.94;5101931;28;20196;-66
2024/01/07 10:43:31;;;;;;;0.70;0.70;;;;;;;14.15;100.00;97544.28;5099162;28;20248;-66
2024/01/07 10:46:03;;;;;;;6.43;4.13;;;;;;;14.21;100.00;97540.44;5094282;28;20651;-65
2024/01/07 10:48:33;;;;;;;11.80;6.63;;;;;;;14.31;100.00;97538.81;5101500;28;20211;-65
2024/01/07 10:51:01;;;;;;;9.63;4.03;;;;;;;14.39;100.00;97531.34;5101474;28;20293;-65
2024/01/07 10:53:34;;;;;;;5.63;3.40;;;;;;;14.41;100.00;97529.47;5102318;28;20267;-65
2024/01/07 10:56:04;;;;;;;7.27;2.37;;;;;;;14.45;98.41;97530.91;5102179;28;20278;-65
2024/01/07 10:58:34;;;;;;;2.07;1.97;;;;;;;14.50;99.21;97539.13;5098209;28;20245;-66
2024/01/07 11:01:03;;;;;;;6.07;1.73;;;;;;;14.50;92.80;97531.38;5098853;28;20714;-66
2024/01/07 11:03:38;;;;;;;2.93;2.40;;;;;;;14.45;89.81;97520.59;5103996;28;20277;-65
2024/01/07 11:06:13;;;;;;;1.70;1.57;;;;;;;14.58;89.60;97523.06;5100868;28;20590;-65
2024/01/07 11:08:45;;;;;;;1.57;1.00;;;;;;;14.43;87.46;97512.16;5100075;28;20206;-65
2024/01/07 11:11:17;;;;;;;0.60;0.60;;;;;;;14.58;87.18;97516.13;5096866;28;20251;-65
2024/01/07 11:13:45;;;;;;;0.40;0.40;;;;;;;14.57;85.89;97518.84;5102868;28;20438;-68
2024/01/07 11:16:12;;;;;;;2.80;2.60;;;;;;;14.65;84.96;97514.75;5093947;28;20257;-68
2024/01/07 11:18:40;;;;;;;2.93;2.43;;;;;;;14.74;84.15;97515.78;5090607;28;20191;-68
2024/01/07 11:21:07;;;;;;;6.30;2.83;;;;;;;14.78;82.39;97524.09;5088864;28;20192;-69
2024/01/07 11:23:37;;;;;;;1.03;1.03;;;;;;;14.85;79.74;97517.53;5090359;28;21734;-69
2024/01/07 11:26:04;;;;;;;1.87;1.20;;;;;;;14.94;80.93;97511.66;5085646;28;20204;-69
2024/01/07 11:28:52;;;;;;;2.50;1.33;;;;;;;15.00;80.44;97511.19;5089149;28;20223;-69
2024/01/07 11:31:20;;;;;;;1.27;0.73;;;;;;;15.09;79.15;97515.63;5089037;28;20203;-69